Time;durP1;ratioP1;P1;durP2;ratioP2;P2;SDS_P1;SDS_P2;PMS_P1;PMS_P2;Temp;Humidity;BMP_temperature;BMP_pressure;BME280_temperature;BME280_humidity;BME280_pressure;Samples;Min_cycle;Max_cycle;Signal;HPM_P1;HPM_P2
2023/08/14 00:02:02;;;;;;;2.97;1.90;;;;;;;;;;5109875;27;41648;-63
2023/08/14 00:04:30;;;;;;;3.42;1.67;;;;;;;;;;5108189;27;42248;-63
2023/08/14 00:06:58;;;;;;;6.47;1.85;;;;;;;;;;5110379;27;40509;-63
2023/08/14 00:09:25;;;;;;;3.75;1.55;;;;;;;;;;5109114;27;41830;-63
2023/08/14 00:11:53;;;;;;;2.03;1.50;;;;;;;;;;5109171;27;40415;-63
2023/08/14 00:14:22;;;;;;;2.85;1.65;;;;;;;;;;5108817;27;42678;-63
2023/08/14 00:16:50;;;;;;;3.10;1.75;;;;;;;;;;5107540;28;42571;-63
2023/08/14 00:19:18;;;;;;;1.67;1.30;;;;;;;;;;5109059;27;40271;-63
2023/08/14 00:21:46;;;;;;;2.00;1.65;;;;;;;;;;5108208;27;41579;-63
2023/08/14 00:24:14;;;;;;;2.80;1.90;;;;;;;;;;5109554;27;42603;-63
2023/08/14 00:26:42;;;;;;;2.75;1.77;;;;;;;;;;5109201;27;40122;-63
2023/08/14 00:29:10;;;;;;;2.17;1.50;;;;;;;;;;5109744;27;41400;-63
2023/08/14 00:31:40;;;;;;;3.00;1.42;;;;;;;;;;5107680;28;40033;-63
2023/08/14 00:34:08;;;;;;;4.38;1.77;;;;;;;;;;5107534;28;41334;-63
2023/08/14 00:36:36;;;;;;;5.78;1.50;;;;;;;;;;5106885;28;40913;-63
2023/08/14 00:39:04;;;;;;;2.50;1.98;;;;;;;;;;5108208;28;41356;-63
2023/08/14 00:41:32;;;;;;;3.10;1.85;;;;;;;;;;5108829;27;42257;-63
2023/08/14 00:44:00;;;;;;;1.75;1.45;;;;;;;;;;5109254;28;42090;-63
2023/08/14 00:46:28;;;;;;;2.58;1.45;;;;;;;;;;5107532;28;40161;-63
2023/08/14 00:48:57;;;;;;;5.05;2.05;;;;;;;;;;5107662;28;40127;-63
2023/08/14 00:51:25;;;;;;;2.08;1.45;;;;;;;;;;5107156;28;32878;-63
2023/08/14 00:53:53;;;;;;;1.80;1.30;;;;;;;;;;5107099;27;41145;-63
2023/08/14 00:56:21;;;;;;;2.47;1.60;;;;;;;;;;5108443;28;42778;-63
2023/08/14 00:58:49;;;;;;;3.85;1.40;;;;;;;;;;5107071;28;39987;-63
2023/08/14 01:01:18;;;;;;;2.30;1.67;;;;;;;;;;5107590;28;41487;-63
2023/08/14 01:03:46;;;;;;;1.50;1.23;;;;;;;;;;5106579;28;40649;-63
2023/08/14 01:06:15;;;;;;;3.88;1.77;;;;;;;;;;5108432;27;42266;-63
2023/08/14 01:08:43;;;;;;;4.05;2.05;;;;;;;;;;5108322;27;42133;-63
2023/08/14 01:11:13;;;;;;;2.40;1.70;;;;;;;;;;5125127;27;41711;-63
2023/08/14 01:13:42;;;;;;;2.05;1.33;;;;;;;;;;5107330;28;42591;-63
2023/08/14 01:16:10;;;;;;;1.83;1.70;;;;;;;;;;5106351;28;40698;-63
2023/08/14 01:18:39;;;;;;;4.63;2.30;;;;;;;;;;5108126;28;41328;-63
2023/08/14 01:21:11;;;;;;;1.77;1.63;;;;;;;;;;5107353;28;42567;-63
2023/08/14 01:23:46;;;;;;;1.70;1.60;;;;;;;;;;5106554;28;41311;-63
2023/08/14 01:26:15;;;;;;;3.10;1.90;;;;;;;;;;5106729;28;39018;-63
2023/08/14 01:28:43;;;;;;;2.72;1.75;;;;;;;;;;5107642;28;42556;-63
2023/08/14 01:31:11;;;;;;;2.17;1.42;;;;;;;;;;5106617;27;40424;-63
2023/08/14 01:33:39;;;;;;;2.15;1.55;;;;;;;;;;5108039;28;40341;-63
2023/08/14 01:36:09;;;;;;;1.95;1.38;;;;;;;;;;5123386;27;40311;-63
2023/08/14 01:38:38;;;;;;;3.05;1.92;;;;;;;;;;5106592;28;38733;-63
2023/08/14 01:41:07;;;;;;;1.88;1.45;;;;;;;;;;5107220;28;40255;-63
2023/08/14 01:43:37;;;;;;;3.08;1.58;;;;;;;;;;5107546;27;41792;-63
2023/08/14 01:46:05;;;;;;;5.68;1.30;;;;;;;;;;5108308;27;41451;-63
2023/08/14 01:48:33;;;;;;;3.47;1.92;;;;;;;;;;5105139;28;40553;-62
2023/08/14 01:51:01;;;;;;;3.78;1.95;;;;;;;;;;5106489;28;40876;-62
2023/08/14 01:53:29;;;;;;;4.22;2.10;;;;;;;;;;5105749;28;39603;-62
2023/08/14 01:55:57;;;;;;;1.83;1.52;;;;;;;;;;5107429;28;41275;-62
2023/08/14 01:58:26;;;;;;;2.45;1.80;;;;;;;;;;5108153;27;40559;-62
2023/08/14 02:00:55;;;;;;;3.60;1.63;;;;;;;;;;5107743;28;41739;-63
2023/08/14 02:03:25;;;;;;;2.25;2.05;;;;;;;;;;5107314;28;42157;-63
2023/08/14 02:05:53;;;;;;;1.15;1.05;;;;;;;;;;5106356;28;39197;-63
2023/08/14 02:08:21;;;;;;;3.53;2.20;;;;;;;;;;5107236;27;42709;-63
2023/08/14 02:10:49;;;;;;;2.40;1.60;;;;;;;;;;5087904;28;41668;-63
2023/08/14 02:13:17;;;;;;;1.27;1.17;;;;;;;;;;5105919;28;38842;-63
2023/08/14 02:15:45;;;;;;;1.77;1.50;;;;;;;;;;5106916;28;42520;-63
2023/08/14 02:18:15;;;;;;;2.83;1.48;;;;;;;;;;5106979;28;41892;-63
2023/08/14 02:20:50;;;;;;;4.30;1.77;;;;;;;;;;5105976;28;41683;-63
2023/08/14 02:23:18;;;;;;;2.40;1.48;;;;;;;;;;5107629;28;41833;-63
2023/08/14 02:25:46;;;;;;;2.17;1.73;;;;;;;;;;5115503;27;40440;-63
2023/08/14 02:28:14;;;;;;;1.67;1.35;;;;;;;;;;5120087;27;40153;-63
2023/08/14 02:30:42;;;;;;;2.78;1.80;;;;;;;;;;5106844;28;42151;-64
2023/08/14 02:33:10;;;;;;;2.58;1.80;;;;;;;;;;5108000;28;40619;-63
2023/08/14 02:35:39;;;;;;;2.42;1.50;;;;;;;;;;5105010;28;40832;-63
2023/08/14 02:38:07;;;;;;;1.88;1.77;;;;;;;;;;5106606;27;42717;-63
2023/08/14 02:40:36;;;;;;;1.55;1.00;;;;;;;;;;5106058;28;38983;-63
2023/08/14 02:43:06;;;;;;;1.98;1.73;;;;;;;;;;5107390;28;42201;-63
2023/08/14 02:45:34;;;;;;;2.85;1.95;;;;;;;;;;5105988;28;41302;-63
2023/08/14 02:48:02;;;;;;;2.90;1.70;;;;;;;;;;5107717;28;42444;-63
2023/08/14 02:50:30;;;;;;;1.98;1.50;;;;;;;;;;5106518;28;42171;-63
2023/08/14 02:52:59;;;;;;;3.38;1.90;;;;;;;;;;5106441;28;41099;-63
2023/08/14 02:55:28;;;;;;;1.67;1.58;;;;;;;;;;5106869;28;41602;-63
2023/08/14 02:57:56;;;;;;;1.02;0.80;;;;;;;;;;5106684;27;42174;-63
2023/08/14 03:00:24;;;;;;;4.07;1.45;;;;;;;;;;5106709;28;41730;-63
2023/08/14 03:02:52;;;;;;;3.03;2.03;;;;;;;;;;5107117;28;41992;-63
2023/08/14 03:05:20;;;;;;;1.40;1.30;;;;;;;;;;5106809;28;40103;-63
2023/08/14 03:07:48;;;;;;;3.15;1.92;;;;;;;;;;5105660;28;42757;-63
2023/08/14 03:10:17;;;;;;;2.90;1.00;;;;;;;;;;5107213;28;43148;-62
2023/08/14 03:12:45;;;;;;;3.35;2.03;;;;;;;;;;5105835;28;39951;-63
2023/08/14 03:15:13;;;;;;;1.17;1.05;;;;;;;;;;5106673;28;41468;-62
2023/08/14 03:17:41;;;;;;;3.17;1.85;;;;;;;;;;5106783;28;43595;-63
2023/08/14 03:20:10;;;;;;;3.38;1.73;;;;;;;;;;5104547;27;38986;-63
2023/08/14 03:22:38;;;;;;;2.85;1.77;;;;;;;;;;5105386;28;40189;-63
2023/08/14 03:25:07;;;;;;;2.53;1.80;;;;;;;;;;5104906;28;39009;-63
2023/08/14 03:27:37;;;;;;;2.17;1.20;;;;;;;;;;5104325;27;41182;-63
2023/08/14 03:30:06;;;;;;;2.47;1.85;;;;;;;;;;5105231;27;41125;-63
2023/08/14 03:32:34;;;;;;;1.42;1.33;;;;;;;;;;5108830;27;40082;-63
2023/08/14 03:35:04;;;;;;;1.55;1.30;;;;;;;;;;5113176;27;41358;-63
2023/08/14 03:37:34;;;;;;;2.00;1.80;;;;;;;;;;5099659;28;40993;-63
2023/08/14 03:40:02;;;;;;;2.05;1.52;;;;;;;;;;5108894;28;39112;-63
2023/08/14 03:42:32;;;;;;;2.00;1.65;;;;;;;;;;5107558;28;40398;-63
2023/08/14 03:45:01;;;;;;;1.40;1.30;;;;;;;;;;5109767;27;40694;-63
2023/08/14 03:47:29;;;;;;;1.90;1.38;;;;;;;;;;5109733;28;42198;-63
2023/08/14 03:49:57;;;;;;;1.27;0.90;;;;;;;;;;5109196;28;42663;-63
2023/08/14 03:52:27;;;;;;;1.33;0.80;;;;;;;;;;5100040;28;41301;-63
2023/08/14 03:54:55;;;;;;;1.13;0.90;;;;;;;;;;5109386;28;41327;-63
2023/08/14 03:57:23;;;;;;;2.80;2.10;;;;;;;;;;5109326;28;42351;-63
2023/08/14 03:59:52;;;;;;;3.45;1.42;;;;;;;;;;5108390;27;39608;-63
2023/08/14 04:02:21;;;;;;;2.60;2.17;;;;;;;;;;5108935;28;42518;-65
2023/08/14 04:04:49;;;;;;;3.55;2.55;;;;;;;;;;5107721;28;41490;-65
2023/08/14 04:07:17;;;;;;;4.05;2.60;;;;;;;;;;5108700;28;39122;-65
2023/08/14 04:09:45;;;;;;;5.72;2.10;;;;;;;;;;5108579;27;43186;-63
2023/08/14 04:12:13;;;;;;;3.38;2.47;;;;;;;;;;5109788;28;40287;-64
2023/08/14 04:14:42;;;;;;;3.17;2.85;;;;;;;;;;5109233;28;41822;-63
2023/08/14 04:17:09;;;;;;;8.27;3.33;;;;;;;;;;5108664;27;42580;-63
2023/08/14 04:19:39;;;;;;;5.13;2.80;;;;;;;;;;5109098;28;41314;-64
2023/08/14 04:22:07;;;;;;;12.95;1.95;;;;;;;;;;5107191;27;41159;-62
2023/08/14 04:24:35;;;;;;;10.82;2.28;;;;;;;;;;5107810;28;42635;-62
2023/08/14 04:27:03;;;;;;;12.80;1.95;;;;;;;;;;5109466;28;40369;-61
2023/08/14 04:29:32;;;;;;;10.43;2.17;;;;;;;;;;5107027;28;40186;-62
2023/08/14 04:32:00;;;;;;;4.80;2.00;;;;;;;;;;5107115;27;39409;-62
2023/08/14 04:34:28;;;;;;;10.85;2.08;;;;;;;;;;5108680;28;41716;-62
2023/08/14 04:36:57;;;;;;;4.80;1.98;;;;;;;;;;5109173;28;43227;-62
2023/08/14 04:39:26;;;;;;;3.97;2.20;;;;;;;;;;5123704;27;39110;-62
2023/08/14 04:41:54;;;;;;;5.38;2.35;;;;;;;;;;5109124;27;41337;-62
2023/08/14 04:44:25;;;;;;;5.65;2.22;;;;;;;;;;5124016;27;40775;-62
2023/08/14 04:46:53;;;;;;;4.40;1.98;;;;;;;;;;5124326;27;38373;-62
2023/08/14 04:49:28;;;;;;;9.93;2.25;;;;;;;;;;5124180;27;41058;-62
2023/08/14 04:51:58;;;;;;;5.47;2.15;;;;;;;;;;5108425;28;41825;-62
2023/08/14 04:54:26;;;;;;;6.35;2.20;;;;;;;;;;5106949;28;40172;-62
2023/08/14 04:56:54;;;;;;;3.35;2.00;;;;;;;;;;5109218;28;42871;-62
2023/08/14 04:59:22;;;;;;;3.00;1.90;;;;;;;;;;5106369;28;40132;-62
2023/08/14 05:01:50;;;;;;;2.90;2.10;;;;;;;;;;5105151;28;41732;-62
2023/08/14 05:04:20;;;;;;;5.70;2.30;;;;;;;;;;5124669;27;41104;-63
2023/08/14 05:06:48;;;;;;;7.63;3.17;;;;;;;;;;5108068;28;41718;-62
2023/08/14 05:09:17;;;;;;;8.65;2.40;;;;;;;;;;5124402;27;40465;-62
2023/08/14 05:11:54;;;;;;;6.53;2.30;;;;;;;;;;5107807;28;41875;-62
2023/08/14 05:14:22;;;;;;;5.63;2.60;;;;;;;;;;5107999;28;41846;-62
2023/08/14 05:16:51;;;;;;;4.20;2.33;;;;;;;;;;5121786;27;40657;-62
2023/08/14 05:19:19;;;;;;;8.57;2.92;;;;;;;;;;5107950;27;40076;-62
2023/08/14 05:21:47;;;;;;;5.65;2.97;;;;;;;;;;5108052;27;42076;-62
2023/08/14 05:24:15;;;;;;;5.93;2.63;;;;;;;;;;5108552;27;42103;-62
2023/08/14 05:26:44;;;;;;;3.30;3.00;;;;;;;;;;5107477;27;40926;-62
2023/08/14 05:29:12;;;;;;;5.07;2.95;;;;;;;;;;5108118;27;41614;-62
2023/08/14 05:31:40;;;;;;;3.97;2.65;;;;;;;;;;5107667;27;42218;-62
2023/08/14 05:34:08;;;;;;;6.18;2.92;;;;;;;;;;5108421;27;40353;-62
2023/08/14 05:36:36;;;;;;;5.45;3.10;;;;;;;;;;5107625;27;42301;-62
2023/08/14 05:39:05;;;;;;;6.53;2.92;;;;;;;;;;5108627;27;41833;-62
2023/08/14 05:41:33;;;;;;;9.27;3.33;;;;;;;;;;5107146;27;42388;-62
2023/08/14 05:44:03;;;;;;;6.65;3.53;;;;;;;;;;5108181;27;42432;-62
2023/08/14 05:46:31;;;;;;;3.90;3.55;;;;;;;;;;5107600;27;40248;-62
2023/08/14 05:48:59;;;;;;;4.38;3.08;;;;;;;;;;5107682;27;42591;-62
2023/08/14 05:51:27;;;;;;;5.03;3.55;;;;;;;;;;5107612;27;42121;-62
2023/08/14 05:53:55;;;;;;;7.70;3.90;;;;;;;;;;5107574;27;40288;-63
2023/08/14 05:56:23;;;;;;;6.28;3.50;;;;;;;;;;5107243;27;41654;-62
2023/08/14 05:58:51;;;;;;;4.53;3.35;;;;;;;;;;5107986;27;40061;-62
2023/08/14 06:01:20;;;;;;;6.82;4.10;;;;;;;;;;5107071;27;41220;-62
2023/08/14 06:03:48;;;;;;;6.43;4.47;;;;;;;;;;5090537;28;41993;-62
2023/08/14 06:06:16;;;;;;;5.82;4.03;;;;;;;;;;5107233;27;40399;-63
2023/08/14 06:08:44;;;;;;;9.80;6.72;;;;;;;;;;5106231;27;41653;-62
2023/08/14 06:11:12;;;;;;;8.95;7.40;;;;;;;;;;5107709;27;43095;-62
2023/08/14 06:13:40;;;;;;;14.05;8.65;;;;;;;;;;5107101;27;41269;-62
2023/08/14 06:16:08;;;;;;;8.80;7.28;;;;;;;;;;5107556;27;41658;-62
2023/08/14 06:18:38;;;;;;;11.00;6.28;;;;;;;;;;5108347;27;42109;-62
2023/08/14 06:21:06;;;;;;;16.00;5.90;;;;;;;;;;5107228;27;41535;-62
2023/08/14 06:23:34;;;;;;;11.82;5.57;;;;;;;;;;5106164;27;42331;-64
2023/08/14 06:26:02;;;;;;;13.60;5.85;;;;;;;;;;5107559;27;40328;-63
2023/08/14 06:28:30;;;;;;;11.35;6.63;;;;;;;;;;5106949;27;41212;-62
2023/08/14 06:31:00;;;;;;;16.98;5.60;;;;;;;;;;5107321;27;42288;-63
2023/08/14 06:33:28;;;;;;;22.42;5.90;;;;;;;;;;5107407;27;40895;-62
2023/08/14 06:35:58;;;;;;;22.27;5.88;;;;;;;;;;5107352;27;42743;-62
2023/08/14 06:38:26;;;;;;;13.65;5.28;;;;;;;;;;5106363;27;42267;-62
2023/08/14 06:40:53;;;;;;;12.07;5.10;;;;;;;;;;5108321;27;40627;-62
2023/08/14 06:43:21;;;;;;;16.13;5.15;;;;;;;;;;5107138;27;42736;-62
2023/08/14 06:45:49;;;;;;;9.70;4.78;;;;;;;;;;5106559;27;40072;-62
2023/08/14 06:48:19;;;;;;;10.25;5.05;;;;;;;;;;5107911;27;41700;-62
2023/08/14 06:50:47;;;;;;;16.67;5.13;;;;;;;;;;5105772;27;43061;-63
2023/08/14 06:53:16;;;;;;;16.33;6.45;;;;;;;;;;5104998;28;41925;-61
2023/08/14 06:55:46;;;;;;;8.30;4.75;;;;;;;;;;5107136;27;41293;-61
2023/08/14 06:58:14;;;;;;;10.55;4.68;;;;;;;;;;5107058;27;42984;-61
2023/08/14 07:00:42;;;;;;;10.00;4.95;;;;;;;;;;5107338;27;39759;-62
2023/08/14 07:03:10;;;;;;;9.30;5.60;;;;;;;;;;5108295;27;42728;-63
2023/08/14 07:05:38;;;;;;;15.77;5.00;;;;;;;;;;5106694;27;40080;-63
2023/08/14 07:08:06;;;;;;;12.45;7.10;;;;;;;;;;5110602;27;41213;-62
2023/08/14 07:10:35;;;;;;;10.15;6.43;;;;;;;;;;5110241;27;41890;-62
2023/08/14 07:13:04;;;;;;;16.60;5.70;;;;;;;;;;5109462;27;41375;-62
2023/08/14 07:15:32;;;;;;;10.40;5.47;;;;;;;;;;5109147;27;41542;-63
2023/08/14 07:18:00;;;;;;;13.25;5.78;;;;;;;;;;5110634;27;42062;-62
2023/08/14 07:20:28;;;;;;;11.25;5.38;;;;;;;;;;5108997;27;41298;-63
2023/08/14 07:22:56;;;;;;;11.77;4.97;;;;;;;;;;5111359;27;42567;-63
2023/08/14 07:25:24;;;;;;;14.10;5.65;;;;;;;;;;5107927;27;41307;-61
2023/08/14 07:27:53;;;;;;;10.77;5.95;;;;;;;;;;5092039;27;40254;-62
2023/08/14 07:30:21;;;;;;;15.07;6.47;;;;;;;;;;5088917;28;42291;-63
2023/08/14 07:32:49;;;;;;;10.50;6.00;;;;;;;;;;5105361;28;40884;-63
2023/08/14 07:35:17;;;;;;;8.27;5.95;;;;;;;;;;5108848;27;41780;-63
2023/08/14 07:37:45;;;;;;;12.27;5.93;;;;;;;;;;5109349;27;41607;-62
2023/08/14 07:40:13;;;;;;;15.63;6.63;;;;;;;;;;5109155;27;40567;-63
2023/08/14 07:42:41;;;;;;;9.77;5.65;;;;;;;;;;5109944;27;41459;-62
2023/08/14 07:45:14;;;;;;;13.13;6.82;;;;;;;;;;5110451;27;42811;-63
2023/08/14 07:47:42;;;;;;;10.93;5.68;;;;;;;;;;5108939;27;41153;-63
2023/08/14 07:50:11;;;;;;;15.00;5.78;;;;;;;;;;5109485;27;42158;-62
2023/08/14 07:52:39;;;;;;;15.48;6.47;;;;;;;;;;5093824;27;41366;-63
2023/08/14 07:55:07;;;;;;;15.38;6.78;;;;;;;;;;5108352;27;41720;-62
2023/08/14 07:57:35;;;;;;;10.68;5.40;;;;;;;;;;5108781;27;42018;-62
2023/08/14 08:00:07;;;;;;;13.32;5.82;;;;;;;;;;5108445;27;39938;-63
2023/08/14 08:02:39;;;;;;;10.27;5.53;;;;;;;;;;5100665;28;41892;-61
2023/08/14 08:05:08;;;;;;;12.85;6.00;;;;;;;;;;5106786;27;43205;-65
2023/08/14 08:07:36;;;;;;;20.13;6.53;;;;;;;;;;5100507;27;42278;-67
2023/08/14 08:10:04;;;;;;;17.73;6.75;;;;;;;;;;5106970;27;42983;-65
2023/08/14 08:12:32;;;;;;;14.85;6.95;;;;;;;;;;5108974;27;40967;-65
2023/08/14 08:15:00;;;;;;;15.38;6.55;;;;;;;;;;5103121;28;40959;-65
2023/08/14 08:17:29;;;;;;;16.60;6.18;;;;;;;;;;5107657;27;41393;-64
2023/08/14 08:19:59;;;;;;;28.27;7.22;;;;;;;;;;5106342;27;40432;-64
2023/08/14 08:22:27;;;;;;;18.95;6.68;;;;;;;;;;5102560;27;41338;-63
2023/08/14 08:24:55;;;;;;;31.40;7.05;;;;;;;;;;5106572;27;41669;-64
2023/08/14 08:27:23;;;;;;;30.70;6.75;;;;;;;;;;5109465;27;41141;-64
2023/08/14 08:29:51;;;;;;;29.15;7.60;;;;;;;;;;5107803;27;41339;-63
2023/08/14 08:32:19;;;;;;;19.63;7.28;;;;;;;;;;5107228;27;40886;-63
2023/08/14 08:34:47;;;;;;;20.38;6.40;;;;;;;;;;5107653;27;41084;-65
2023/08/14 08:37:19;;;;;;;24.23;6.45;;;;;;;;;;5106373;27;41577;-64
2023/08/14 08:39:47;;;;;;;17.40;6.72;;;;;;;;;;5108396;27;40435;-64
2023/08/14 08:42:16;;;;;;;18.73;6.95;;;;;;;;;;5100324;27;41387;-64
2023/08/14 08:44:45;;;;;;;26.75;7.03;;;;;;;;;;5106254;28;43105;-65
2023/08/14 08:47:14;;;;;;;18.15;6.68;;;;;;;;;;5104042;27;40502;-64
2023/08/14 08:49:42;;;;;;;12.57;5.72;;;;;;;;;;5106750;28;41706;-64
2023/08/14 08:52:11;;;;;;;14.38;5.85;;;;;;;;;;5107483;27;42076;-64
2023/08/14 08:54:40;;;;;;;12.70;5.55;;;;;;;;;;5103136;27;41480;-63
2023/08/14 08:57:08;;;;;;;11.85;5.93;;;;;;;;;;5108512;27;41572;-64
2023/08/14 08:59:36;;;;;;;9.68;5.80;;;;;;;;;;5105630;27;40357;-64
2023/08/14 09:02:07;;;;;;;11.00;5.30;;;;;;;;;;5108354;27;42699;-63
2023/08/14 09:04:35;;;;;;;11.15;5.28;;;;;;;;;;5105608;27;43131;-63
2023/08/14 09:07:04;;;;;;;7.55;5.13;;;;;;;;;;5107007;27;41016;-64
2023/08/14 09:09:32;;;;;;;10.35;6.20;;;;;;;;;;5106152;27;42711;-65
2023/08/14 09:12:01;;;;;;;14.80;5.30;;;;;;;;;;5105772;28;43108;-64
2023/08/14 09:14:29;;;;;;;12.90;5.95;;;;;;;;;;5107761;27;41259;-64
2023/08/14 09:16:58;;;;;;;10.75;5.60;;;;;;;;;;5104276;27;41819;-64
2023/08/14 09:19:26;;;;;;;13.25;5.35;;;;;;;;;;5086838;28;41429;-65
2023/08/14 09:21:55;;;;;;;10.75;5.05;;;;;;;;;;5091022;28;41477;-64
2023/08/14 09:24:24;;;;;;;11.68;5.28;;;;;;;;;;5108098;27;42017;-64
2023/08/14 09:26:52;;;;;;;11.13;4.68;;;;;;;;;;5104324;27;40403;-64
2023/08/14 09:29:21;;;;;;;9.23;4.75;;;;;;;;;;5108691;27;41215;-64
2023/08/14 09:31:50;;;;;;;10.15;5.07;;;;;;;;;;5106983;27;43148;-64
2023/08/14 09:34:18;;;;;;;12.57;4.32;;;;;;;;;;5098249;27;39827;-64
2023/08/14 09:36:47;;;;;;;10.25;4.90;;;;;;;;;;5107308;27;42061;-64
2023/08/14 09:39:17;;;;;;;11.85;4.88;;;;;;;;;;5089741;27;41270;-64
2023/08/14 09:41:51;;;;;;;13.23;5.00;;;;;;;;;;5106955;27;41149;-64
2023/08/14 09:44:20;;;;;;;14.65;5.15;;;;;;;;;;5099914;28;41434;-64
2023/08/14 09:46:54;;;;;;;7.97;4.78;;;;;;;;;;5106626;27;41894;-64
2023/08/14 09:49:23;;;;;;;11.55;5.10;;;;;;;;;;5103940;28;43396;-64
2023/08/14 09:51:54;;;;;;;11.23;4.47;;;;;;;;;;5106877;27;42133;-64
2023/08/14 09:54:32;;;;;;;11.63;4.45;;;;;;;;;;5090578;28;40306;-64
2023/08/14 09:57:02;;;;;;;10.02;4.82;;;;;;;;;;5106924;27;41626;-64
2023/08/14 09:59:35;;;;;;;13.13;5.32;;;;;;;;;;5107353;27;40138;-64
2023/08/14 10:02:05;;;;;;;9.88;5.18;;;;;;;;;;5085928;28;41526;-64
2023/08/14 10:04:34;;;;;;;9.27;4.53;;;;;;;;;;5106771;27;42600;-65
2023/08/14 10:07:02;;;;;;;11.95;5.10;;;;;;;;;;5104872;27;40293;-64
2023/08/14 10:09:30;;;;;;;12.18;4.97;;;;;;;;;;5102405;28;41141;-64
2023/08/14 10:11:58;;;;;;;18.23;5.68;;;;;;;;;;5104977;27;42320;-64
2023/08/14 10:14:26;;;;;;;9.63;4.60;;;;;;;;;;5106001;27;40362;-67
2023/08/14 10:16:54;;;;;;;12.77;4.47;;;;;;;;;;5105884;27;41777;-66
2023/08/14 10:19:24;;;;;;;10.88;4.45;;;;;;;;;;5097196;27;42734;-66
2023/08/14 10:21:52;;;;;;;10.77;4.32;;;;;;;;;;5105958;27;42560;-66
2023/08/14 10:24:20;;;;;;;8.98;4.18;;;;;;;;;;5100972;27;41814;-66
2023/08/14 10:26:48;;;;;;;7.82;3.90;;;;;;;;;;5105818;27;38843;-66
2023/08/14 10:29:16;;;;;;;10.07;4.00;;;;;;;;;;5096391;27;43388;-66
2023/08/14 10:31:46;;;;;;;8.30;3.80;;;;;;;;;;5086520;28;43842;-66
2023/08/14 10:34:14;;;;;;;13.27;3.88;;;;;;;;;;5101709;28;40293;-66
2023/08/14 10:36:43;;;;;;;11.50;3.85;;;;;;;;;;5105894;27;41750;-66
2023/08/14 10:39:12;;;;;;;8.82;3.20;;;;;;;;;;5106234;27;43134;-66
2023/08/14 10:41:43;;;;;;;7.80;3.60;;;;;;;;;;5105235;27;41198;-66
2023/08/14 10:44:11;;;;;;;10.32;3.88;;;;;;;;;;5106572;27;41899;-66
2023/08/14 10:46:40;;;;;;;12.73;3.42;;;;;;;;;;5104142;27;40520;-67
2023/08/14 10:49:10;;;;;;;12.68;3.08;;;;;;;;;;5106022;27;41576;-66
2023/08/14 10:51:38;;;;;;;7.97;3.08;;;;;;;;;;5103750;27;42259;-68
2023/08/14 10:54:11;;;;;;;11.05;3.38;;;;;;;;;;5107185;27;40435;-66
2023/08/14 10:56:46;;;;;;;11.63;3.28;;;;;;;;;;5104895;27;42282;-66
2023/08/14 10:59:20;;;;;;;7.57;3.42;;;;;;;;;;5105381;27;42207;-66
2023/08/14 11:01:51;;;;;;;7.32;3.22;;;;;;;;;;5107225;27;41277;-66
2023/08/14 11:04:22;;;;;;;8.85;3.38;;;;;;;;;;5104411;27;41579;-66
2023/08/14 11:07:05;;;;;;;8.82;3.40;;;;;;;;;;5092486;27;41156;-66
2023/08/14 11:09:37;;;;;;;6.07;3.20;;;;;;;;;;5105127;27;42101;-66
2023/08/14 11:12:06;;;;;;;10.40;3.45;;;;;;;;;;5106019;27;41938;-66
2023/08/14 11:14:37;;;;;;;7.32;3.15;;;;;;;;;;5104192;27;39873;-66
2023/08/14 11:17:05;;;;;;;8.38;3.40;;;;;;;;;;5105851;27;41643;-66
2023/08/14 11:19:38;;;;;;;7.03;3.10;;;;;;;;;;5086309;27;43113;-66
2023/08/14 11:22:06;;;;;;;8.80;2.80;;;;;;;;;;5095625;28;41264;-66
2023/08/14 11:24:36;;;;;;;7.28;3.05;;;;;;;;;;5088453;27;42313;-66
2023/08/14 11:27:06;;;;;;;10.27;2.60;;;;;;;;;;5104935;28;32685;-66
2023/08/14 11:29:35;;;;;;;10.10;3.28;;;;;;;;;;5105609;27;40938;-62
2023/08/14 11:32:05;;;;;;;9.77;2.90;;;;;;;;;;5084656;27;42101;-65
2023/08/14 11:34:34;;;;;;;9.82;2.78;;;;;;;;;;5100414;28;40871;-63
2023/08/14 11:37:03;;;;;;;5.18;2.47;;;;;;;;;;5090458;27;41253;-65
2023/08/14 11:39:35;;;;;;;8.48;2.75;;;;;;;;;;5101538;28;42342;-65
2023/08/14 11:42:03;;;;;;;7.88;2.97;;;;;;;;;;5104482;27;40184;-65
2023/08/14 11:44:34;;;;;;;6.63;2.63;;;;;;;;;;5106166;27;41215;-65
2023/08/14 11:47:04;;;;;;;7.80;2.78;;;;;;;;;;5103073;27;42765;-65
2023/08/14 11:49:36;;;;;;;4.70;2.20;;;;;;;;;;5103903;27;41788;-65
2023/08/14 11:52:04;;;;;;;8.43;3.03;;;;;;;;;;5107066;27;40066;-64
2023/08/14 11:54:32;;;;;;;5.82;2.35;;;;;;;;;;5098944;27;40393;-65
2023/08/14 11:57:03;;;;;;;5.90;2.40;;;;;;;;;;5110073;27;41678;-65
2023/08/14 11:59:31;;;;;;;10.55;2.30;;;;;;;;;;5107743;27;42686;-67
2023/08/14 12:02:01;;;;;;;5.10;2.28;;;;;;;;;;5108287;27;40576;-65
2023/08/14 12:04:28;;;;;;;5.43;2.10;;;;;;;;;;5107737;27;41698;-65
2023/08/14 12:06:56;;;;;;;8.07;2.45;;;;;;;;;;5109905;27;42780;-65
2023/08/14 12:09:26;;;;;;;5.72;2.00;;;;;;;;;;5108967;27;40555;-65
2023/08/14 12:11:54;;;;;;;6.30;2.63;;;;;;;;;;5108309;27;42140;-66
2023/08/14 12:14:22;;;;;;;5.90;2.05;;;;;;;;;;5108786;27;40124;-64
2023/08/14 12:16:52;;;;;;;5.63;1.92;;;;;;;;;;5103746;27;42568;-65
2023/08/14 12:19:22;;;;;;;8.32;2.13;;;;;;;;;;5109010;27;42545;-71
2023/08/14 12:21:55;;;;;;;9.05;2.50;;;;;;;;;;5106803;27;40539;-72
2023/08/14 12:24:24;;;;;;;6.38;2.20;;;;;;;;;;5109780;27;41389;-69
2023/08/14 12:26:52;;;;;;;7.32;2.50;;;;;;;;;;5107966;27;41955;-63
2023/08/14 12:29:21;;;;;;;8.55;2.42;;;;;;;;;;5108324;27;40292;-68
2023/08/14 12:31:49;;;;;;;7.13;2.63;;;;;;;;;;5109930;27;41555;-68
2023/08/14 12:34:21;;;;;;;8.93;2.25;;;;;;;;;;5106803;27;40477;-68
2023/08/14 12:36:50;;;;;;;8.48;2.60;;;;;;;;;;5088779;28;42105;-68
2023/08/14 12:39:18;;;;;;;4.32;2.45;;;;;;;;;;5107145;27;42101;-70
2023/08/14 12:41:46;;;;;;;6.70;2.58;;;;;;;;;;5109341;27;42522;-71
2023/08/14 12:44:14;;;;;;;8.82;2.85;;;;;;;;;;5106924;27;41529;-66
2023/08/14 12:46:42;;;;;;;6.82;2.80;;;;;;;;;;5109101;27;43112;-66
2023/08/14 12:49:10;;;;;;;6.03;2.65;;;;;;;;;;5107827;27;40221;-66
2023/08/14 12:51:40;;;;;;;10.82;2.63;;;;;;;;;;5107334;27;41685;-68
2023/08/14 12:54:10;;;;;;;10.32;3.55;;;;;;;;;;5108576;28;42927;-67
2023/08/14 12:56:38;;;;;;;9.10;3.40;;;;;;;;;;5102659;28;41263;-68
2023/08/14 12:59:06;;;;;;;10.68;3.25;;;;;;;;;;5108733;27;41472;-67
2023/08/14 13:01:34;;;;;;;16.08;4.00;;;;;;;;;;5107121;27;40228;-67
2023/08/14 13:04:02;;;;;;;6.93;3.15;;;;;;;;;;5108268;27;41650;-68
2023/08/14 13:06:34;;;;;;;12.05;3.92;;;;;;;;;;5107992;27;41606;-68
2023/08/14 13:09:02;;;;;;;9.45;3.33;;;;;;;;;;5109460;27;39778;-67
2023/08/14 13:11:32;;;;;;;9.27;3.83;;;;;;;;;;5108117;27;42227;-68
2023/08/14 13:14:00;;;;;;;7.53;3.40;;;;;;;;;;5100621;27;43040;-67
2023/08/14 13:16:28;;;;;;;12.70;3.90;;;;;;;;;;5107473;27;41445;-67
2023/08/14 13:18:56;;;;;;;12.68;3.63;;;;;;;;;;5107704;27;42393;-64
2023/08/14 13:21:23;;;;;;;13.32;3.40;;;;;;;;;;5105665;27;40302;-64
2023/08/14 13:23:52;;;;;;;12.63;3.25;;;;;;;;;;5108373;27;42169;-64
2023/08/14 13:26:20;;;;;;;6.93;2.95;;;;;;;;;;5106017;27;42638;-64
2023/08/14 13:28:52;;;;;;;8.02;3.28;;;;;;;;;;5108398;27;40444;-64
2023/08/14 13:31:20;;;;;;;7.63;2.85;;;;;;;;;;5107214;27;41641;-70
2023/08/14 13:33:48;;;;;;;5.95;2.80;;;;;;;;;;5107257;27;42680;-62
2023/08/14 13:36:16;;;;;;;7.15;2.70;;;;;;;;;;5109141;27;40925;-62
2023/08/14 13:38:44;;;;;;;6.55;2.50;;;;;;;;;;5105772;27;42108;-64
2023/08/14 13:41:12;;;;;;;7.47;2.42;;;;;;;;;;5108343;27;40411;-65
2023/08/14 13:43:40;;;;;;;6.35;2.58;;;;;;;;;;5096049;27;41292;-65
2023/08/14 13:46:09;;;;;;;8.35;3.08;;;;;;;;;;5087348;28;42146;-65
2023/08/14 13:48:37;;;;;;;14.73;2.63;;;;;;;;;;5087623;28;39664;-67
2023/08/14 13:51:05;;;;;;;5.65;2.35;;;;;;;;;;5088960;28;41716;-68
2023/08/14 13:53:33;;;;;;;9.93;2.55;;;;;;;;;;5086346;28;41426;-72
2023/08/14 13:56:01;;;;;;;22.52;3.10;;;;;;;;;;5088301;28;41235;-63
2023/08/14 13:58:29;;;;;;;15.05;2.95;;;;;;;;;;5087895;28;42656;-68
2023/08/14 14:00:57;;;;;;;9.90;2.50;;;;;;;;;;5087702;28;40592;-63
2023/08/14 14:03:31;;;;;;;19.55;3.20;;;;;;;;;;5088272;28;41667;-64
2023/08/14 14:05:59;;;;;;;18.60;2.90;;;;;;;;;;5108237;27;41969;-64
2023/08/14 14:08:27;;;;;;;17.52;3.30;;;;;;;;;;5106386;27;40646;-63
2023/08/14 14:10:55;;;;;;;8.05;2.63;;;;;;;;;;5106923;27;42067;-64
2023/08/14 14:13:23;;;;;;;8.32;2.47;;;;;;;;;;5106569;27;42124;-64
2023/08/14 14:15:51;;;;;;;8.35;2.67;;;;;;;;;;5105217;27;40937;-64
2023/08/14 14:18:19;;;;;;;10.07;2.20;;;;;;;;;;5106726;27;42235;-63
2023/08/14 14:20:49;;;;;;;15.32;2.75;;;;;;;;;;5105736;27;42621;-63
2023/08/14 14:23:17;;;;;;;7.05;2.53;;;;;;;;;;5106698;27;41854;-68
2023/08/14 14:25:45;;;;;;;9.25;2.55;;;;;;;;;;5104375;28;42635;-64
2023/08/14 14:28:14;;;;;;;6.18;2.38;;;;;;;;;;5106473;27;40312;-66
2023/08/14 14:30:42;;;;;;;3.78;2.08;;;;;;;;;;5105882;28;41583;-67
2023/08/14 14:33:10;;;;;;;5.20;2.38;;;;;;;;;;5107187;27;41687;-65
2023/08/14 14:35:38;;;;;;;8.00;2.22;;;;;;;;;;5105494;27;41626;-68
2023/08/14 14:38:07;;;;;;;5.65;2.08;;;;;;;;;;5106780;27;41716;-67
2023/08/14 14:40:35;;;;;;;23.17;2.30;;;;;;;;;;5105966;27;41594;-66
2023/08/14 14:43:03;;;;;;;8.38;1.50;;;;;;;;;;5106283;27;40346;-65
2023/08/14 14:45:31;;;;;;;7.45;2.40;;;;;;;;;;5105494;27;42026;-65
2023/08/14 14:48:02;;;;;;;3.90;1.88;;;;;;;;;;5106817;27;41308;-65